createdAt,value
2019-02-20T00:01:49.202Z,28.60
2019-02-20T00:04:16.282Z,31.30
2019-02-20T00:06:43.426Z,30.70
2019-02-20T00:09:10.583Z,29.30
2019-02-20T00:11:37.643Z,31.33
2019-02-20T00:14:04.867Z,34.30
2019-02-20T00:16:31.963Z,36.33
2019-02-20T00:18:59.110Z,35.80
2019-02-20T00:21:26.163Z,37.73
2019-02-20T00:23:53.342Z,40.87
2019-02-20T00:26:20.683Z,41.53
2019-02-20T00:28:47.783Z,40.63
2019-02-20T00:31:14.881Z,41.00
2019-02-20T00:33:42.061Z,44.50
2019-02-20T00:36:09.203Z,43.07
2019-02-20T00:38:37.322Z,46.77
2019-02-20T00:41:04.503Z,51.50
2019-02-20T00:43:31.882Z,45.83
2019-02-20T00:46:03.682Z,53.63
2019-02-20T00:48:38.409Z,51.13
2019-02-20T00:51:22.471Z,50.20
2019-02-20T00:54:09.567Z,51.63
2019-02-20T00:56:36.723Z,55.67
2019-02-20T00:59:03.863Z,51.20
2019-02-20T01:01:31.064Z,53.10
2019-02-20T01:03:58.141Z,57.23
2019-02-20T01:06:25.313Z,57.90
2019-02-20T01:08:52.394Z,60.63
2019-02-20T01:11:19.598Z,55.97
2019-02-20T01:13:46.876Z,53.87
2019-02-20T01:16:14.094Z,55.60
2019-02-20T01:18:41.235Z,53.40
2019-02-20T01:21:08.394Z,59.27
2019-02-20T01:23:35.474Z,60.50
2019-02-20T01:26:02.634Z,62.57
2019-02-20T01:28:29.733Z,62.13
2019-02-20T01:30:56.896Z,68.37
2019-02-20T01:33:23.994Z,69.00
2019-02-20T01:35:51.138Z,70.83
2019-02-20T01:38:18.193Z,72.70
2019-02-20T01:40:45.514Z,70.53
2019-02-20T01:43:12.617Z,73.87
2019-02-20T01:45:39.854Z,70.67
2019-02-20T01:48:07.048Z,72.83
2019-02-20T01:50:34.127Z,76.20
2019-02-20T01:53:10.007Z,73.47
2019-02-20T01:55:30.502Z,67.80
2019-02-20T01:57:57.606Z,71.87
2019-02-20T02:00:24.767Z,63.57
2019-02-20T02:02:51.948Z,65.90
2019-02-20T02:05:19.048Z,66.53
2019-02-20T02:07:46.206Z,67.07
2019-02-20T02:10:13.349Z,70.43
2019-02-20T02:12:40.492Z,70.57
2019-02-20T02:15:08.806Z,68.80
2019-02-20T02:17:35.965Z,70.07
2019-02-20T02:20:05.726Z,71.63
2019-02-20T02:22:32.925Z,79.90
2019-02-20T02:25:00.025Z,82.67
2019-02-20T02:27:27.145Z,80.17
2019-02-20T02:29:54.328Z,72.47
2019-02-20T02:32:21.478Z,68.03
2019-02-20T02:34:48.618Z,68.73
2019-02-20T02:37:15.825Z,65.33
2019-02-20T02:39:42.985Z,67.07
2019-02-20T02:42:10.119Z,66.20
2019-02-20T02:44:37.208Z,67.10
2019-02-20T02:47:04.314Z,63.70
2019-02-20T02:49:31.480Z,62.80
2019-02-20T02:51:58.666Z,71.47
2019-02-20T02:54:27.093Z,57.33
2019-02-20T02:56:54.315Z,63.67
2019-02-20T02:59:21.378Z,67.90
2019-02-20T03:01:48.811Z,73.80
2019-02-20T03:04:15.969Z,76.73
2019-02-20T03:06:43.010Z,73.83
2019-02-20T03:09:10.406Z,70.60
2019-02-20T03:11:37.506Z,68.03
2019-02-20T03:14:04.852Z,62.67
2019-02-20T03:16:31.946Z,57.40
2019-02-20T03:18:59.026Z,58.87
2019-02-20T03:21:26.130Z,59.03
2019-02-20T03:23:53.262Z,57.33
2019-02-20T03:26:20.536Z,57.67
2019-02-20T03:28:47.642Z,63.10
2019-02-20T03:31:14.716Z,60.90
2019-02-20T03:33:41.814Z,62.00
2019-02-20T03:36:08.871Z,60.10
2019-02-20T03:38:35.957Z,59.67
2019-02-20T03:41:03.435Z,61.33
2019-02-20T03:43:30.564Z,58.37
2019-02-20T03:45:57.712Z,57.17
2019-02-20T03:48:24.778Z,57.97
2019-02-20T03:50:51.837Z,62.03
2019-02-20T03:53:18.971Z,59.13
2019-02-20T03:55:46.392Z,60.20
2019-02-20T03:58:13.492Z,66.70
2019-02-20T04:00:40.752Z,64.00
2019-02-20T04:03:08.292Z,64.10
2019-02-20T04:05:35.371Z,60.70
2019-02-20T04:08:02.515Z,59.70
2019-02-20T04:10:29.734Z,62.70
2019-02-20T04:12:56.916Z,55.23
2019-02-20T04:15:24.151Z,58.63
2019-02-20T04:17:51.330Z,63.60
2019-02-20T04:20:18.373Z,59.73
2019-02-20T04:22:45.513Z,58.07
2019-02-20T04:25:12.631Z,57.83
2019-02-20T04:27:39.776Z,62.37
2019-02-20T04:30:08.930Z,58.87
2019-02-20T04:32:36.097Z,59.57
2019-02-20T04:35:04.253Z,58.83
2019-02-20T04:37:31.393Z,60.67
2019-02-20T04:39:58.531Z,54.10
2019-02-20T04:42:25.670Z,57.97
2019-02-20T04:44:52.771Z,56.40
2019-02-20T04:47:19.970Z,55.23
2019-02-20T04:49:47.099Z,58.77
2019-02-20T04:52:14.200Z,54.33
2019-02-20T04:54:41.441Z,52.57
2019-02-20T04:57:08.970Z,49.43
2019-02-20T04:59:36.090Z,46.17
2019-02-20T05:02:03.192Z,51.03
2019-02-20T05:04:30.373Z,48.53
2019-02-20T05:06:57.491Z,54.87
2019-02-20T05:09:24.634Z,56.43
2019-02-20T05:11:51.751Z,59.87
2019-02-20T05:14:18.851Z,52.73
2019-02-20T05:16:45.953Z,59.67
2019-02-20T05:19:13.120Z,66.47
2019-02-20T05:21:40.231Z,61.80
2019-02-20T05:24:07.351Z,56.23
2019-02-20T05:26:34.451Z,64.40
2019-02-20T05:29:01.591Z,63.83
2019-02-20T05:31:28.690Z,64.73
2019-02-20T05:33:55.871Z,67.23
2019-02-20T05:36:22.978Z,76.23
2019-02-20T05:38:50.131Z,71.67
2019-02-20T05:41:17.239Z,63.70
2019-02-20T05:43:44.372Z,67.13
2019-02-20T05:46:11.473Z,70.53
2019-02-20T05:48:38.732Z,71.27
2019-02-20T05:51:05.819Z,69.40
2019-02-20T05:53:32.951Z,78.17
2019-02-20T05:56:00.166Z,75.67
2019-02-20T05:58:27.637Z,79.00
2019-02-20T06:00:54.713Z,72.93
2019-02-20T06:03:21.891Z,64.50
2019-02-20T06:05:48.997Z,66.40
2019-02-20T06:08:16.052Z,67.53
2019-02-20T06:10:43.213Z,61.20
2019-02-20T06:13:10.373Z,67.57
2019-02-20T06:15:37.511Z,64.63
2019-02-20T06:18:04.591Z,63.63
2019-02-20T06:20:31.775Z,62.43
2019-02-20T06:22:58.912Z,70.13
2019-02-20T06:25:26.032Z,71.10
2019-02-20T06:27:53.195Z,71.37
2019-02-20T06:30:20.410Z,73.03
2019-02-20T06:32:47.494Z,73.57
2019-02-20T06:35:14.610Z,72.27
2019-02-20T06:37:41.711Z,69.27
2019-02-20T06:40:08.973Z,72.03
2019-02-20T06:42:36.050Z,69.20
2019-02-20T06:45:06.911Z,66.33
2019-02-20T06:47:33.970Z,62.47
2019-02-20T06:50:01.772Z,60.83
2019-02-20T06:52:28.916Z,62.43
2019-02-20T06:54:56.031Z,66.93
2019-02-20T06:57:23.112Z,63.17
2019-02-20T06:59:50.296Z,62.37
2019-02-20T07:02:17.650Z,62.50
2019-02-20T07:05:32.451Z,63.87
2019-02-20T07:08:44.839Z,64.30
2019-02-20T07:11:37.071Z,66.47
2019-02-20T07:14:30.572Z,60.17
2019-02-20T07:17:30.450Z,65.17
2019-02-20T07:20:17.711Z,63.57
2019-02-20T07:23:28.351Z,60.43
2019-02-20T07:26:09.892Z,64.27
2019-02-20T07:29:03.213Z,58.97
2019-02-20T07:31:30.371Z,58.57
2019-02-20T07:33:57.671Z,58.57
2019-02-20T07:36:24.771Z,57.73
2019-02-20T07:38:51.954Z,50.60
2019-02-20T07:41:19.131Z,57.57
2019-02-20T07:43:46.191Z,53.00
2019-02-20T07:46:13.331Z,52.07
2019-02-20T07:48:40.508Z,55.80
2019-02-20T07:51:07.667Z,51.10
2019-02-20T07:53:36.408Z,50.20
2019-02-20T07:56:03.629Z,54.23
2019-02-20T07:58:30.822Z,48.33
2019-02-20T08:00:58.092Z,49.53
2019-02-20T08:03:25.148Z,51.20
2019-02-20T08:05:52.508Z,49.83
2019-02-20T08:08:19.645Z,46.93
2019-02-20T08:10:46.905Z,44.03
2019-02-20T08:13:14.005Z,47.00
2019-02-20T08:15:41.143Z,39.50
2019-02-20T08:18:08.301Z,40.87
2019-02-20T08:20:35.363Z,39.63
2019-02-20T08:23:02.834Z,37.33
2019-02-20T08:25:30.087Z,38.33
2019-02-20T08:27:57.343Z,40.23
2019-02-20T08:30:24.424Z,37.97
2019-02-20T08:32:51.603Z,40.23
2019-02-20T08:35:18.842Z,37.80
2019-02-20T08:37:46.363Z,34.37
2019-02-20T08:40:14.513Z,30.97
2019-02-20T08:42:41.706Z,30.90
2019-02-20T08:45:11.023Z,30.67
2019-02-20T08:47:38.205Z,30.63
2019-02-20T08:50:09.103Z,27.40
2019-02-20T08:52:36.263Z,26.97
2019-02-20T08:55:07.442Z,28.77
2019-02-20T08:57:34.615Z,28.63
2019-02-20T09:00:01.806Z,24.77
2019-02-20T09:02:29.004Z,26.47
2019-02-20T09:04:56.103Z,25.77
2019-02-20T09:07:23.266Z,28.80
2019-02-20T09:09:50.416Z,24.33
2019-02-20T09:12:17.443Z,28.30
2019-02-20T09:14:44.662Z,23.93
2019-02-20T09:17:11.742Z,25.00
2019-02-20T09:19:38.883Z,30.57
2019-02-20T09:22:06.005Z,26.10
2019-02-20T09:24:33.083Z,26.30
2019-02-20T09:27:00.462Z,24.53
2019-02-20T09:29:28.122Z,19.67
2019-02-20T09:31:55.250Z,20.97
2019-02-20T09:34:22.463Z,23.60
2019-02-20T09:36:49.603Z,23.70
2019-02-20T09:39:31.831Z,23.10
2019-02-20T09:41:58.962Z,20.10
2019-02-20T09:44:27.362Z,21.03
2019-02-20T09:46:54.502Z,20.47
2019-02-20T09:49:21.608Z,21.70
2019-02-20T09:51:48.804Z,22.27
2019-02-20T09:54:15.963Z,21.87
2019-02-20T09:56:43.173Z,19.07
2019-02-20T09:59:10.234Z,19.43
2019-02-20T10:01:37.322Z,20.73
2019-02-20T10:04:04.410Z,19.60
2019-02-20T10:06:31.585Z,21.30
2019-02-20T10:08:58.662Z,25.67
2019-02-20T10:11:25.822Z,20.73
2019-02-20T10:13:52.983Z,22.20
2019-02-20T10:16:20.163Z,19.47
2019-02-20T10:18:47.382Z,20.40
2019-02-20T10:21:14.524Z,20.67
2019-02-20T10:23:41.662Z,22.00
2019-02-20T10:26:08.822Z,22.40
2019-02-20T10:28:35.922Z,21.20
2019-02-20T10:31:03.187Z,22.03
2019-02-20T10:33:30.303Z,21.37
2019-02-20T10:35:57.463Z,23.97
2019-02-20T10:38:24.602Z,21.73
2019-02-20T10:40:51.830Z,23.83
2019-02-20T10:43:19.123Z,24.13
2019-02-20T10:45:46.243Z,26.20
2019-02-20T10:48:13.388Z,27.90
2019-02-20T10:50:40.483Z,22.70
2019-02-20T10:53:07.745Z,24.23
2019-02-20T10:55:34.862Z,23.63
2019-02-20T10:58:02.063Z,25.67
2019-02-20T11:00:29.403Z,25.80
2019-02-20T11:02:56.605Z,27.70
2019-02-20T11:05:23.763Z,23.97
2019-02-20T11:07:50.864Z,25.77
2019-02-20T11:10:18.019Z,25.67
2019-02-20T11:12:45.143Z,28.13
2019-02-20T11:15:13.138Z,25.60
2019-02-20T11:17:40.487Z,25.17
2019-02-20T11:20:10.128Z,27.97
2019-02-20T11:22:37.247Z,25.43
2019-02-20T11:25:08.727Z,26.17
2019-02-20T11:27:35.868Z,32.33
2019-02-20T11:30:07.354Z,28.20
2019-02-20T11:32:34.510Z,29.07
2019-02-20T11:35:01.609Z,27.00
2019-02-20T11:37:28.780Z,32.33
2019-02-20T11:39:55.875Z,32.70
2019-02-20T11:42:22.976Z,31.13
2019-02-20T11:44:50.113Z,31.37
2019-02-20T11:47:17.257Z,33.50
2019-02-20T11:49:44.396Z,30.57
2019-02-20T11:52:11.491Z,31.57
2019-02-20T11:54:38.876Z,29.47
2019-02-20T11:57:06.016Z,31.40
2019-02-20T11:59:33.475Z,28.90
2019-02-20T12:02:00.615Z,29.03
2019-02-20T12:04:27.764Z,32.13
2019-02-20T12:06:54.916Z,29.27
2019-02-20T12:09:22.056Z,27.20
2019-02-20T12:11:49.225Z,31.73
2019-02-20T12:14:16.376Z,31.27
2019-02-20T12:16:47.696Z,31.40
2019-02-20T12:19:14.836Z,30.33
2019-02-20T12:21:42.016Z,32.43
2019-02-20T12:24:09.136Z,30.80
2019-02-20T12:26:36.296Z,32.30
2019-02-20T12:29:03.436Z,28.57
2019-02-20T12:31:30.596Z,27.40
2019-02-20T12:33:58.198Z,27.33
2019-02-20T12:36:25.402Z,27.03
2019-02-20T12:38:52.557Z,30.10
2019-02-20T12:41:20.035Z,28.43
2019-02-20T12:43:47.123Z,29.60
2019-02-20T12:46:14.275Z,28.23
2019-02-20T12:48:41.822Z,28.00
2019-02-20T12:51:08.876Z,26.83
2019-02-20T12:53:36.056Z,29.43
2019-02-20T12:56:09.806Z,25.90
2019-02-20T12:58:32.256Z,23.50
2019-02-20T13:00:59.360Z,22.63
2019-02-20T13:03:26.575Z,25.13
2019-02-20T13:05:53.676Z,22.30
2019-02-20T13:08:20.836Z,21.63
2019-02-20T13:10:48.156Z,22.33
2019-02-20T13:13:15.459Z,17.87
2019-02-20T13:15:42.636Z,19.00
2019-02-20T13:18:09.773Z,16.80
2019-02-20T13:20:36.956Z,21.43
2019-02-20T13:23:04.096Z,20.20
2019-02-20T13:25:31.236Z,18.57
2019-02-20T13:27:58.377Z,22.23
2019-02-20T13:30:25.476Z,20.17
2019-02-20T13:32:52.636Z,19.53
2019-02-20T13:35:19.737Z,22.23
2019-02-20T13:37:46.817Z,24.67
2019-02-20T13:40:13.966Z,22.00
2019-02-20T13:42:41.055Z,20.63
2019-02-20T13:45:08.660Z,20.07
2019-02-20T13:47:35.757Z,18.60
2019-02-20T13:50:06.676Z,22.60
2019-02-20T13:52:34.117Z,19.70
2019-02-20T13:55:01.518Z,18.87
2019-02-20T13:57:28.596Z,18.37
2019-02-20T13:59:55.749Z,20.20
2019-02-20T14:02:22.896Z,20.97
2019-02-20T14:04:50.114Z,19.87
2019-02-20T14:07:17.235Z,19.60
2019-02-20T14:09:44.553Z,18.83
2019-02-20T14:12:11.717Z,19.87
2019-02-20T14:14:38.914Z,18.57
2019-02-20T14:17:06.076Z,18.43
2019-02-20T14:19:33.223Z,21.63
2019-02-20T14:22:00.368Z,20.33
2019-02-20T14:24:27.786Z,17.90
2019-02-20T14:26:54.967Z,19.23
2019-02-20T14:29:22.631Z,19.17
2019-02-20T14:31:50.402Z,18.90
2019-02-20T14:34:17.476Z,16.43
2019-02-20T14:36:44.610Z,17.10
2019-02-20T14:39:11.731Z,16.77
2019-02-20T14:41:38.764Z,17.47
2019-02-20T14:44:06.016Z,18.93
2019-02-20T14:46:33.238Z,18.00
2019-02-20T14:49:00.489Z,19.37
2019-02-20T14:51:28.051Z,16.67
2019-02-20T14:53:55.172Z,15.73
2019-02-20T14:56:22.271Z,15.17
2019-02-20T14:58:49.430Z,16.17
2019-02-20T15:01:16.612Z,17.13
2019-02-20T15:03:43.691Z,16.33
2019-02-20T15:06:10.870Z,15.80
2019-02-20T15:08:37.956Z,16.03
2019-02-20T15:11:05.502Z,16.10
2019-02-20T15:13:32.696Z,15.23
2019-02-20T15:15:59.756Z,19.10
2019-02-20T15:18:26.823Z,17.40
2019-02-20T15:20:53.914Z,18.37
2019-02-20T15:23:21.033Z,17.13
2019-02-20T15:25:48.359Z,18.27
2019-02-20T15:28:16.459Z,17.90
2019-02-20T15:30:43.642Z,18.17
2019-02-20T15:33:11.710Z,19.20
2019-02-20T15:35:40.482Z,17.27
2019-02-20T15:38:07.524Z,15.77
2019-02-20T15:40:34.606Z,17.17
2019-02-20T15:43:01.863Z,17.20
2019-02-20T15:45:29.013Z,17.07
2019-02-20T15:47:56.475Z,16.13
2019-02-20T15:50:23.535Z,19.40
2019-02-20T15:52:50.595Z,18.23
2019-02-20T15:55:17.713Z,18.73
2019-02-20T15:57:44.895Z,18.93
2019-02-20T16:00:16.991Z,16.60
2019-02-20T16:02:44.183Z,15.03
2019-02-20T16:05:12.660Z,21.13
2019-02-20T16:07:39.741Z,15.93
2019-02-20T16:10:09.506Z,18.20
2019-02-20T16:12:36.626Z,14.93
2019-02-20T16:15:09.267Z,16.57
2019-02-20T16:17:36.386Z,16.93
2019-02-20T16:20:08.625Z,15.77
2019-02-20T16:22:35.769Z,17.60
2019-02-20T16:25:05.790Z,14.57
2019-02-20T16:27:32.966Z,18.17
2019-02-20T16:30:00.208Z,17.70
2019-02-20T16:32:27.406Z,16.03
2019-02-20T16:34:54.525Z,16.97
2019-02-20T16:37:21.785Z,15.67
2019-02-20T16:39:49.486Z,18.57
2019-02-20T16:42:16.566Z,20.03
2019-02-20T16:44:45.559Z,16.70
2019-02-20T16:47:12.869Z,19.37
2019-02-20T16:49:39.966Z,16.87
2019-02-20T16:52:07.085Z,16.47
2019-02-20T16:54:34.186Z,15.73
2019-02-20T16:57:01.315Z,15.80
2019-02-20T16:59:28.525Z,19.60
2019-02-20T17:01:55.746Z,19.53
2019-02-20T17:04:22.758Z,18.40
2019-02-20T17:06:49.865Z,17.37
2019-02-20T17:09:17.007Z,16.07
2019-02-20T17:11:44.066Z,19.70
2019-02-20T17:14:11.166Z,18.07
2019-02-20T17:16:38.507Z,17.63
2019-02-20T17:19:05.725Z,17.93
2019-02-20T17:21:32.826Z,18.07
2019-02-20T17:24:00.107Z,18.23
2019-02-20T17:26:27.246Z,17.40
2019-02-20T17:28:54.486Z,18.83
2019-02-20T17:31:22.106Z,16.90
2019-02-20T17:33:49.246Z,21.00
2019-02-20T17:36:16.566Z,17.87
2019-02-20T17:38:43.726Z,21.23
2019-02-20T17:41:10.851Z,25.00
2019-02-20T17:43:38.046Z,22.83
2019-02-20T17:46:05.165Z,18.20
2019-02-20T17:48:32.306Z,19.17
2019-02-20T17:50:59.446Z,20.73
2019-02-20T17:53:27.109Z,22.10
2019-02-20T17:55:54.266Z,21.03
2019-02-20T17:58:21.426Z,23.13
2019-02-20T18:00:49.030Z,25.43
2019-02-20T18:03:16.290Z,25.93
2019-02-20T18:05:43.689Z,28.03
2019-02-20T18:08:10.791Z,27.20
2019-02-20T18:10:37.949Z,27.87
2019-02-20T18:13:05.426Z,31.60
2019-02-20T18:15:32.545Z,31.27
2019-02-20T18:17:59.925Z,35.37
2019-02-20T18:20:27.006Z,30.67
2019-02-20T18:22:54.193Z,32.63
2019-02-20T18:25:21.305Z,31.10
2019-02-20T18:27:48.447Z,33.63
2019-02-20T18:30:15.648Z,35.87
2019-02-20T18:32:42.821Z,30.97
2019-02-20T18:35:12.957Z,36.20
2019-02-20T18:37:40.042Z,34.80
2019-02-20T18:40:10.946Z,34.57
2019-02-20T18:42:38.107Z,35.30
2019-02-20T18:45:09.212Z,37.07
2019-02-20T18:47:36.328Z,34.67
2019-02-20T18:50:07.206Z,34.03
2019-02-20T18:52:34.353Z,36.87
2019-02-20T18:55:05.922Z,38.97
2019-02-20T18:57:31.007Z,34.57
2019-02-20T18:59:58.182Z,33.60
2019-02-20T19:02:25.390Z,33.83
2019-02-20T19:04:52.525Z,38.07
2019-02-20T19:07:19.742Z,35.43
2019-02-20T19:09:47.088Z,34.17
2019-02-20T19:12:41.140Z,37.07
2019-02-20T19:15:25.167Z,35.03
2019-02-20T19:18:34.624Z,34.70
2019-02-20T19:21:12.742Z,33.10
2019-02-20T19:24:12.625Z,35.73
2019-02-20T19:27:05.656Z,35.03
2019-02-20T19:30:14.885Z,33.40
2019-02-20T19:32:59.468Z,33.53
2019-02-20T19:35:51.604Z,34.23
2019-02-20T19:38:43.903Z,33.10
2019-02-20T19:41:28.024Z,34.70
2019-02-20T19:44:31.710Z,40.80
2019-02-20T19:47:41.069Z,41.30
2019-02-20T19:50:22.821Z,38.90
2019-02-20T19:53:09.807Z,39.47
2019-02-20T19:56:07.628Z,36.23
2019-02-20T19:59:21.621Z,39.10
2019-02-20T20:02:11.709Z,37.83
2019-02-20T20:05:25.006Z,34.03
2019-02-20T20:08:06.579Z,37.73
2019-02-20T20:10:47.802Z,37.23
2019-02-20T20:13:44.441Z,38.03
2019-02-20T20:16:29.121Z,39.70
2019-02-20T20:19:13.407Z,39.30
2019-02-20T20:21:45.399Z,42.13
2019-02-20T20:24:26.641Z,44.43
2019-02-20T20:27:02.265Z,40.77
2019-02-20T20:29:54.359Z,44.77
2019-02-20T20:32:53.913Z,41.23
2019-02-20T20:35:57.263Z,42.27
2019-02-20T20:38:47.601Z,42.33
2019-02-20T20:41:41.060Z,43.90
2019-02-20T20:44:28.382Z,40.37
2019-02-20T20:47:25.239Z,44.73
2019-02-20T20:50:27.265Z,42.97
2019-02-20T20:53:39.378Z,42.20
2019-02-20T20:56:18.444Z,39.00
2019-02-20T20:59:21.040Z,42.80
2019-02-20T21:02:02.464Z,45.30
2019-02-20T21:04:47.099Z,49.80
2019-02-20T21:07:31.636Z,45.50
2019-02-20T21:10:12.478Z,46.97
2019-02-20T21:13:22.719Z,47.80
2019-02-20T21:16:22.194Z,44.17
2019-02-20T21:19:21.375Z,55.40
2019-02-20T21:22:03.374Z,50.13
2019-02-20T21:25:04.375Z,51.10
2019-02-20T21:27:43.094Z,54.63
2019-02-20T21:30:35.836Z,54.90
2019-02-20T21:33:16.898Z,54.57
2019-02-20T21:35:52.078Z,62.07
2019-02-20T21:38:24.654Z,56.17
2019-02-20T21:41:12.014Z,56.30
2019-02-20T21:43:53.815Z,61.27
2019-02-20T21:46:38.648Z,55.60
2019-02-20T21:49:14.109Z,54.87
2019-02-20T21:51:58.851Z,56.23
2019-02-20T21:54:57.410Z,59.30
2019-02-20T21:57:50.949Z,60.23
2019-02-20T22:00:23.490Z,63.27
2019-02-20T22:03:07.488Z,64.93
2019-02-20T22:05:54.390Z,63.30
2019-02-20T22:08:38.948Z,58.17
2019-02-20T22:11:32.231Z,56.87
2019-02-20T22:14:30.609Z,63.30
2019-02-20T22:17:16.890Z,61.67
2019-02-20T22:20:21.508Z,66.60
2019-02-20T22:23:02.927Z,65.53
2019-02-20T22:25:58.214Z,64.87
2019-02-20T22:28:52.389Z,69.23
2019-02-20T22:31:44.508Z,65.27
2019-02-20T22:35:00.891Z,71.13
2019-02-20T22:37:53.249Z,68.33
2019-02-20T22:40:43.828Z,70.10
2019-02-20T22:43:22.369Z,64.40
2019-02-20T22:46:00.749Z,64.60
2019-02-20T22:49:07.708Z,60.00
2019-02-20T22:51:49.189Z,70.90
2019-02-20T22:54:27.208Z,67.50
2019-02-20T22:57:18.028Z,60.37
2019-02-20T23:00:34.567Z,58.97
2019-02-20T23:03:08.087Z,61.13
2019-02-20T23:05:58.368Z,56.97
2019-02-20T23:09:04.534Z,58.97
2019-02-20T23:11:43.030Z,64.50
2019-02-20T23:14:27.528Z,64.87
2019-02-20T23:16:54.628Z,60.60
2019-02-20T23:19:21.750Z,66.87
2019-02-20T23:21:48.871Z,59.70
2019-02-20T23:24:15.995Z,57.57
2019-02-20T23:26:43.108Z,60.83
2019-02-20T23:29:10.230Z,60.10
2019-02-20T23:31:37.352Z,60.53
2019-02-20T23:34:04.529Z,58.23
2019-02-20T23:36:31.590Z,60.23
2019-02-20T23:38:58.708Z,58.83
2019-02-20T23:41:25.768Z,62.40
2019-02-20T23:43:52.868Z,58.77
2019-02-20T23:46:20.029Z,59.57
2019-02-20T23:48:47.169Z,62.33
2019-02-20T23:51:14.267Z,69.07
2019-02-20T23:53:41.469Z,66.07
2019-02-20T23:56:08.691Z,70.37
2019-02-20T23:58:35.808Z,67.47
